Terminal Aerodrome Forecast
Issued by NWS Wilmington, OH

Current Version | Previous Version | Graphics & Text | Print | Product List | Glossary On
Versions: 1 2 3 4 5 6 7 8 9 10 11 12 13 14 15 16 17 18 19 20
000
FTUS41 KILN 301700
TAFCMH
TAF
KCMH 301739Z 3018/3118 25010KT P6SM VCTS BKN050CB
      TEMPO 3018/3021 5SM -TSRA BR OVC025CB
     FM302200 27010KT P6SM VCSH BKN050
     FM310000 24004KT P6SM SCT050
     FM311500 24006KT P6SM SCT040=

USA.gov is the U.S. government's official web portal to all federal, state and local government web resources and services.